PWSweather.com
Personal Weather Stations
Station Observations
KNHRINDG3
Converse Meadow Pond, Rindge, NH 03461

Converse Meadow PondRindge, NH 03461

Lat: 42.74, Lon: -71.98

Elevation: 1060

Station Type: Davis Vantage Pro 2

http://nhwoodworker.com/weather/index.php

High Low Average
Temperature 26.4°F-3.1°F -9.9°F-23.3°F 11.9°F-11.2°F
Dew Point 20.3°F-6.5°F -13.5°F-25.3°F 6.8°F-14.0°F
Winds 5.8 mph SW9.3 mph SW Calm Calm 0.8 mph 1.3 mph
Wind Gusts 10.4 mph16.7 mph -- 1.7 mph2.7 mph
Humidity 93% 47% 81%
Pressure 30.73 in1040.60 in 30.12 in1020.00 in -
Precipitation 0.00 in0.00 in - -
Hour Temp Dew Point Humidity Winds Wind Gusts Pressure Precip Precip Rate Daily Precip Total
12:00 AM -2.9°F-19.4°C -6.8°F-21.6°C 83% Calm Calm -- 30.73 in1040.6 mb 0.00 in0.0 mm 0.00 in/hr0.0 mm/hr 0.00 in0.0 mm
12:10 AM -3.1°F-19.5°C -6.7°F-21.5°C 84% Calm Calm 1.2 mph1.9 kmh 30.73 in1040.6 mb 0.00 in0.0 mm 0.00 in/hr0.0 mm/hr 0.00 in0.0 mm
12:20 AM -3.5°F-19.7°C -7.4°F-21.9°C 83% Calm Calm -- 30.73 in1040.6 mb 0.00 in0.0 mm 0.00 in/hr0.0 mm/hr 0.00 in0.0 mm
12:30 AM -4.0°F-20.0°C -7.9°F-22.2°C 83% Calm Calm -- 30.73 in1040.6 mb 0.00 in0.0 mm 0.00 in/hr0.0 mm/hr 0.00 in0.0 mm
12:40 AM -4.8°F-20.4°C -8.9°F-22.7°C 82% Calm Calm -- 30.73 in1040.6 mb 0.00 in0.0 mm 0.00 in/hr0.0 mm/hr 0.00 in0.0 mm
12:50 AM -5.3°F-20.7°C -9.1°F-22.8°C 83% Calm Calm -- 30.72 in1040.3 mb 0.00 in0.0 mm 0.00 in/hr0.0 mm/hr 0.00 in0.0 mm
01:00 AM -5.5°F-20.8°C -9.1°F-22.8°C 84% Calm Calm -- 30.71 in1040.0 mb 0.00 in0.0 mm 0.00 in/hr0.0 mm/hr 0.00 in0.0 mm
01:10 AM -5.8°F-21.0°C -9.4°F-23.0°C 84% Calm Calm -- 30.72 in1040.3 mb 0.00 in0.0 mm 0.00 in/hr0.0 mm/hr 0.00 in0.0 mm
01:20 AM -6.1°F-21.2°C -9.7°F-23.2°C 84% Calm Calm -- 30.72 in1040.3 mb 0.00 in0.0 mm 0.00 in/hr0.0 mm/hr 0.00 in0.0 mm
01:30 AM -6.4°F-21.3°C -10.0°F-23.3°C 84% Calm Calm -- 30.72 in1040.3 mb 0.00 in0.0 mm 0.00 in/hr0.0 mm/hr 0.00 in0.0 mm
01:40 AM -6.6°F-21.4°C -10.2°F-23.4°C 84% Calm Calm -- 30.73 in1040.6 mb 0.00 in0.0 mm 0.00 in/hr0.0 mm/hr 0.00 in0.0 mm
01:50 AM -6.6°F-21.4°C -9.9°F-23.3°C 85% Calm Calm -- 30.72 in1040.3 mb 0.00 in0.0 mm 0.00 in/hr0.0 mm/hr 0.00 in0.0 mm
02:00 AM -7.0°F-21.7°C -10.5°F-23.6°C 84% Calm Calm -- 30.71 in1040.0 mb 0.00 in0.0 mm 0.00 in/hr0.0 mm/hr 0.00 in0.0 mm
02:10 AM -7.5°F-21.9°C -11.3°F-24.1°C 83% Calm Calm -- 30.71 in1040.0 mb 0.00 in0.0 mm 0.00 in/hr0.0 mm/hr 0.00 in0.0 mm
02:20 AM -7.9°F-22.2°C -11.4°F-24.1°C 84% Calm Calm -- 30.72 in1040.3 mb 0.00 in0.0 mm 0.00 in/hr0.0 mm/hr 0.00 in0.0 mm
02:30 AM -8.0°F-22.2°C -11.5°F-24.2°C 84% Calm Calm -- 30.72 in1040.3 mb 0.00 in0.0 mm 0.00 in/hr0.0 mm/hr 0.00 in0.0 mm
02:40 AM -8.1°F-22.3°C -11.6°F-24.2°C 84% Calm Calm -- 30.72 in1040.3 mb 0.00 in0.0 mm 0.00 in/hr0.0 mm/hr 0.00 in0.0 mm
02:50 AM -8.3°F-22.4°C -11.8°F-24.3°C 84% Calm Calm -- 30.71 in1040.0 mb 0.00 in0.0 mm 0.00 in/hr0.0 mm/hr 0.00 in0.0 mm
03:00 AM -8.4°F-22.4°C -11.7°F-24.3°C 85% Calm Calm -- 30.72 in1040.3 mb 0.00 in0.0 mm 0.00 in/hr0.0 mm/hr 0.00 in0.0 mm
03:10 AM -8.5°F-22.5°C -11.8°F-24.3°C 85% Calm Calm -- 30.71 in1040.0 mb 0.00 in0.0 mm 0.00 in/hr0.0 mm/hr 0.00 in0.0 mm
03:20 AM -8.8°F-22.7°C -12.3°F-24.6°C 84% Calm Calm -- 30.70 in1039.6 mb 0.00 in0.0 mm 0.00 in/hr0.0 mm/hr 0.00 in0.0 mm
03:30 AM -9.2°F-22.9°C -13.0°F-25.0°C 83% Calm Calm -- 30.69 in1039.3 mb 0.00 in0.0 mm 0.00 in/hr0.0 mm/hr 0.00 in0.0 mm
03:40 AM -9.4°F-23.0°C -13.2°F-25.1°C 83% Calm Calm -- 30.69 in1039.3 mb 0.00 in0.0 mm 0.00 in/hr0.0 mm/hr 0.00 in0.0 mm
03:50 AM -9.7°F-23.2°C -13.5°F-25.3°C 83% Calm Calm -- 30.68 in1038.9 mb 0.00 in0.0 mm 0.00 in/hr0.0 mm/hr 0.00 in0.0 mm
04:00 AM -9.8°F-23.2°C -13.3°F-25.2°C 84% Calm Calm -- 30.68 in1038.9 mb 0.00 in0.0 mm 0.00 in/hr0.0 mm/hr 0.00 in0.0 mm
04:10 AM -9.9°F-23.3°C -13.4°F-25.2°C 84% Calm Calm -- 30.68 in1038.9 mb 0.00 in0.0 mm 0.00 in/hr0.0 mm/hr 0.00 in0.0 mm
04:20 AM -9.8°F-23.2°C -13.3°F-25.2°C 84% Calm Calm -- 30.69 in1039.3 mb 0.00 in0.0 mm 0.00 in/hr0.0 mm/hr 0.00 in0.0 mm
04:30 AM -9.9°F-23.3°C -13.4°F-25.2°C 84% Calm Calm -- 30.69 in1039.3 mb 0.00 in0.0 mm 0.00 in/hr0.0 mm/hr 0.00 in0.0 mm
04:40 AM -9.8°F-23.2°C -13.3°F-25.2°C 84% Calm Calm -- 30.70 in1039.6 mb 0.00 in0.0 mm 0.00 in/hr0.0 mm/hr 0.00 in0.0 mm
04:50 AM -9.8°F-23.2°C -13.3°F-25.2°C 84% Calm Calm -- 30.70 in1039.6 mb 0.00 in0.0 mm 0.00 in/hr0.0 mm/hr 0.00 in0.0 mm
05:00 AM -9.8°F-23.2°C -13.1°F-25.1°C 85% Calm Calm -- 30.69 in1039.3 mb 0.00 in0.0 mm 0.00 in/hr0.0 mm/hr 0.00 in0.0 mm
05:10 AM -9.4°F-23.0°C -12.7°F-24.8°C 85% Calm Calm -- 30.69 in1039.3 mb 0.00 in0.0 mm 0.00 in/hr0.0 mm/hr 0.00 in0.0 mm
05:20 AM -9.3°F-22.9°C -12.8°F-24.9°C 84% Calm Calm -- 30.68 in1038.9 mb 0.00 in0.0 mm 0.00 in/hr0.0 mm/hr 0.00 in0.0 mm
05:30 AM -9.0°F-22.8°C -12.5°F-24.7°C 84% Calm Calm -- 30.68 in1038.9 mb 0.00 in0.0 mm 0.00 in/hr0.0 mm/hr 0.00 in0.0 mm
05:40 AM -8.6°F-22.6°C -11.9°F-24.4°C 85% Calm Calm -- 30.69 in1039.3 mb 0.00 in0.0 mm 0.00 in/hr0.0 mm/hr 0.00 in0.0 mm
05:50 AM -8.1°F-22.3°C -11.4°F-24.1°C 85% Calm Calm -- 30.69 in1039.3 mb 0.00 in0.0 mm 0.00 in/hr0.0 mm/hr 0.00 in0.0 mm
06:00 AM -7.6°F-22.0°C -10.9°F-23.8°C 85% Calm Calm -- 30.69 in1039.3 mb 0.00 in0.0 mm 0.00 in/hr0.0 mm/hr 0.00 in0.0 mm
06:10 AM -7.0°F-21.7°C -10.1°F-23.4°C 86% Calm Calm -- 30.69 in1039.3 mb 0.00 in0.0 mm 0.00 in/hr0.0 mm/hr 0.00 in0.0 mm
06:20 AM -6.4°F-21.3°C -9.7°F-23.2°C 85% Calm Calm -- 30.70 in1039.6 mb 0.00 in0.0 mm 0.00 in/hr0.0 mm/hr 0.00 in0.0 mm
06:30 AM -5.8°F-21.0°C -9.1°F-22.8°C 85% Calm Calm -- 30.69 in1039.3 mb 0.00 in0.0 mm 0.00 in/hr0.0 mm/hr 0.00 in0.0 mm
06:40 AM -5.3°F-20.7°C -8.7°F-22.6°C 85% Calm Calm -- 30.70 in1039.6 mb 0.00 in0.0 mm 0.00 in/hr0.0 mm/hr 0.00 in0.0 mm
06:50 AM -4.8°F-20.4°C -8.2°F-22.3°C 85% Calm Calm -- 30.70 in1039.6 mb 0.00 in0.0 mm 0.00 in/hr0.0 mm/hr 0.00 in0.0 mm
07:00 AM -4.2°F-20.1°C -7.6°F-22.0°C 85% Calm Calm -- 30.70 in1039.6 mb 0.00 in0.0 mm 0.00 in/hr0.0 mm/hr 0.00 in0.0 mm
07:10 AM -3.5°F-19.7°C -6.9°F-21.6°C 85% Calm Calm -- 30.70 in1039.6 mb 0.00 in0.0 mm 0.00 in/hr0.0 mm/hr 0.00 in0.0 mm
07:20 AM -2.5°F-19.2°C -5.7°F-20.9°C 86% Calm Calm -- 30.70 in1039.6 mb 0.00 in0.0 mm 0.00 in/hr0.0 mm/hr 0.00 in0.0 mm
07:30 AM -1.5°F-18.6°C -4.7°F-20.4°C 86% Calm Calm -- 30.68 in1038.9 mb 0.00 in0.0 mm 0.00 in/hr0.0 mm/hr 0.00 in0.0 mm
07:40 AM -0.4°F-18.0°C -3.6°F-19.8°C 86% Calm Calm -- 30.68 in1038.9 mb 0.00 in0.0 mm 0.00 in/hr0.0 mm/hr 0.00 in0.0 mm
07:50 AM 0.7°F-17.4°C -2.5°F-19.2°C 86% Calm Calm -- 30.68 in1038.9 mb 0.00 in0.0 mm 0.00 in/hr0.0 mm/hr 0.00 in0.0 mm
08:00 AM 1.8°F-16.8°C -1.6°F-18.7°C 85% Calm Calm -- 30.68 in1038.9 mb 0.00 in0.0 mm 0.00 in/hr0.0 mm/hr 0.00 in0.0 mm
08:10 AM 3.0°F-16.1°C -0.5°F-18.1°C 85% Calm Calm -- 30.67 in1038.6 mb 0.00 in0.0 mm 0.00 in/hr0.0 mm/hr 0.00 in0.0 mm
08:20 AM 4.6°F-15.2°C 1.4°F-17.0°C 86% Calm Calm -- 30.66 in1038.3 mb 0.00 in0.0 mm 0.00 in/hr0.0 mm/hr 0.00 in0.0 mm
08:30 AM 6.6°F-14.1°C 2.5°F-16.4°C 83% Calm Calm -- 30.66 in1038.3 mb 0.00 in0.0 mm 0.00 in/hr0.0 mm/hr 0.00 in0.0 mm
08:40 AM 8.1°F-13.3°C 3.4°F-15.9°C 81% Calm Calm -- 30.65 in1037.9 mb 0.00 in0.0 mm 0.00 in/hr0.0 mm/hr 0.00 in0.0 mm
08:50 AM 9.7°F-12.4°C 5.3°F-14.8°C 82% Calm Calm -- 30.65 in1037.9 mb 0.00 in0.0 mm 0.00 in/hr0.0 mm/hr 0.00 in0.0 mm
09:00 AM 11.7°F-11.3°C 6.7°F-14.1°C 80% Calm Calm -- 30.64 in1037.6 mb 0.00 in0.0 mm 0.00 in/hr0.0 mm/hr 0.00 in0.0 mm
09:10 AM 13.5°F-10.3°C 7.9°F-13.4°C 78% Calm Calm -- 30.64 in1037.6 mb 0.00 in0.0 mm 0.00 in/hr0.0 mm/hr 0.00 in0.0 mm
09:20 AM 15.6°F-9.1°C 7.9°F-13.4°C 71% Calm Calm 1.2 mph1.9 kmh 30.64 in1037.6 mb 0.00 in0.0 mm 0.00 in/hr0.0 mm/hr 0.00 in0.0 mm
09:30 AM 17.3°F-8.2°C 7.9°F-13.4°C 66% 1.2 mph W1.9 kmh W 3.5 mph5.6 kmh 30.64 in1037.6 mb 0.00 in0.0 mm 0.00 in/hr0.0 mm/hr 0.00 in0.0 mm
09:40 AM 18.4°F-7.6°C 7.6°F-13.6°C 62% Calm Calm 1.2 mph1.9 kmh 30.64 in1037.6 mb 0.00 in0.0 mm 0.00 in/hr0.0 mm/hr 0.00 in0.0 mm
09:50 AM 19.1°F-7.2°C 7.5°F-13.6°C 60% Calm Calm -- 30.64 in1037.6 mb 0.00 in0.0 mm 0.00 in/hr0.0 mm/hr 0.00 in0.0 mm
10:00 AM 19.7°F-6.8°C 7.3°F-13.7°C 58% Calm Calm -- 30.63 in1037.3 mb 0.00 in0.0 mm 0.00 in/hr0.0 mm/hr 0.00 in0.0 mm
10:10 AM 20.5°F-6.4°C 8.0°F-13.3°C 58% Calm Calm -- 30.62 in1036.9 mb 0.00 in0.0 mm 0.00 in/hr0.0 mm/hr 0.00 in0.0 mm
10:20 AM 21.0°F-6.1°C 7.7°F-13.5°C 56% Calm Calm 1.2 mph1.9 kmh 30.62 in1036.9 mb 0.00 in0.0 mm 0.00 in/hr0.0 mm/hr 0.00 in0.0 mm
10:30 AM 21.4°F-5.9°C 7.3°F-13.7°C 54% Calm Calm -- 30.60 in1036.2 mb 0.00 in0.0 mm 0.00 in/hr0.0 mm/hr 0.00 in0.0 mm
10:40 AM 21.8°F-5.7°C 8.1°F-13.3°C 55% Calm Calm -- 30.59 in1035.9 mb 0.00 in0.0 mm 0.00 in/hr0.0 mm/hr 0.00 in0.0 mm
10:50 AM 22.7°F-5.2°C 7.7°F-13.5°C 52% Calm Calm 1.2 mph1.9 kmh 30.59 in1035.9 mb 0.00 in0.0 mm 0.00 in/hr0.0 mm/hr 0.00 in0.0 mm
11:00 AM 23.3°F-4.8°C 7.4°F-13.7°C 50% Calm Calm 2.3 mph3.7 kmh 30.59 in1035.9 mb 0.00 in0.0 mm 0.00 in/hr0.0 mm/hr 0.00 in0.0 mm
11:10 AM 23.7°F-4.6°C 8.6°F-13.0°C 52% Calm Calm -- 30.58 in1035.6 mb 0.00 in0.0 mm 0.00 in/hr0.0 mm/hr 0.00 in0.0 mm
11:20 AM 24.4°F-4.2°C 8.8°F-12.9°C 51% 1.2 mph S1.9 kmh S 1.2 mph1.9 kmh 30.58 in1035.6 mb 0.00 in0.0 mm 0.00 in/hr0.0 mm/hr 0.00 in0.0 mm
11:30 AM 24.9°F-3.9°C 8.4°F-13.1°C 49% Calm Calm 1.2 mph1.9 kmh 30.58 in1035.6 mb 0.00 in0.0 mm 0.00 in/hr0.0 mm/hr 0.00 in0.0 mm
11:40 AM 25.5°F-3.6°C 8.0°F-13.3°C 47% 1.2 mph SSE1.9 kmh SSE 3.5 mph5.6 kmh 30.57 in1035.2 mb 0.00 in0.0 mm 0.00 in/hr0.0 mm/hr 0.00 in0.0 mm
11:50 AM 25.7°F-3.5°C 9.2°F-12.7°C 49% 1.2 mph ENE1.9 kmh ENE 2.3 mph3.7 kmh 30.55 in1034.5 mb 0.00 in0.0 mm 0.00 in/hr0.0 mm/hr 0.00 in0.0 mm
12:00 PM 25.8°F-3.4°C 8.8°F-12.9°C 48% 1.2 mph SW1.9 kmh SW 4.6 mph7.4 kmh 30.55 in1034.5 mb 0.00 in0.0 mm 0.00 in/hr0.0 mm/hr 0.00 in0.0 mm
12:10 PM 25.7°F-3.5°C 9.6°F-12.4°C 50% 3.5 mph SSW5.6 kmh SSW 5.8 mph9.3 kmh 30.54 in1034.2 mb 0.00 in0.0 mm 0.00 in/hr0.0 mm/hr 0.00 in0.0 mm
12:20 PM 25.8°F-3.4°C 9.7°F-12.4°C 50% 4.6 mph S7.4 kmh S 6.9 mph11.1 kmh 30.53 in1033.9 mb 0.00 in0.0 mm 0.00 in/hr0.0 mm/hr 0.00 in0.0 mm
12:30 PM 26.4°F-3.1°C 10.7°F-11.8°C 51% 3.5 mph SW5.6 kmh SW 3.5 mph5.6 kmh 30.53 in1033.9 mb 0.00 in0.0 mm 0.00 in/hr0.0 mm/hr 0.00 in0.0 mm
12:40 PM 26.0°F-3.3°C 11.2°F-11.6°C 53% 3.5 mph S5.6 kmh S 3.5 mph5.6 kmh 30.52 in1033.5 mb 0.00 in0.0 mm 0.00 in/hr0.0 mm/hr 0.00 in0.0 mm
12:50 PM 25.5°F-3.6°C 12.0°F-11.1°C 56% 1.2 mph S1.9 kmh S 2.3 mph3.7 kmh 30.52 in1033.5 mb 0.00 in0.0 mm 0.00 in/hr0.0 mm/hr 0.00 in0.0 mm
01:00 PM 25.3°F-3.7°C 13.7°F-10.2°C 61% 3.5 mph SW5.6 kmh SW 4.6 mph7.4 kmh 30.52 in1033.5 mb 0.00 in0.0 mm 0.00 in/hr0.0 mm/hr 0.00 in0.0 mm
01:10 PM 24.5°F-4.2°C 14.8°F-9.6°C 66% 2.3 mph NE3.7 kmh NE 2.3 mph3.7 kmh 30.51 in1033.2 mb 0.00 in0.0 mm 0.00 in/hr0.0 mm/hr 0.00 in0.0 mm
01:20 PM 24.5°F-4.2°C 15.5°F-9.2°C 68% 2.3 mph S3.7 kmh S 5.8 mph9.3 kmh 30.50 in1032.8 mb 0.00 in0.0 mm 0.00 in/hr0.0 mm/hr 0.00 in0.0 mm
01:30 PM 24.2°F-4.3°C 16.1°F-8.8°C 71% 2.3 mph S3.7 kmh S 4.6 mph7.4 kmh 30.49 in1032.5 mb 0.00 in0.0 mm 0.00 in/hr0.0 mm/hr 0.00 in0.0 mm
01:40 PM 24.0°F-4.4°C 16.3°F-8.7°C 72% 2.3 mph SW3.7 kmh SW 3.5 mph5.6 kmh 30.49 in1032.5 mb 0.00 in0.0 mm 0.00 in/hr0.0 mm/hr 0.00 in0.0 mm
01:50 PM 24.1°F-4.4°C 17.0°F-8.3°C 74% 3.5 mph S5.6 kmh S 3.5 mph5.6 kmh 30.48 in1032.2 mb 0.00 in0.0 mm 0.00 in/hr0.0 mm/hr 0.00 in0.0 mm
02:00 PM 24.2°F-4.3°C 17.7°F-7.9°C 76% 2.3 mph SW3.7 kmh SW 3.5 mph5.6 kmh 30.47 in1031.8 mb 0.00 in0.0 mm 0.00 in/hr0.0 mm/hr 0.00 in0.0 mm
02:10 PM 24.3°F-4.3°C 18.4°F-7.6°C 78% 2.3 mph SSW3.7 kmh SSW 3.5 mph5.6 kmh 30.47 in1031.8 mb 0.00 in0.0 mm 0.00 in/hr0.0 mm/hr 0.00 in0.0 mm
02:20 PM 24.2°F-4.3°C 18.4°F-7.6°C 78% 3.5 mph SSW5.6 kmh SSW 5.8 mph9.3 kmh 30.46 in1031.5 mb 0.00 in0.0 mm 0.00 in/hr0.0 mm/hr 0.00 in0.0 mm
02:30 PM 24.0°F-4.4°C 18.1°F-7.7°C 78% 2.3 mph SW3.7 kmh SW 2.3 mph3.7 kmh 30.45 in1031.2 mb 0.00 in0.0 mm 0.00 in/hr0.0 mm/hr 0.00 in0.0 mm
02:40 PM 24.0°F-4.4°C 18.2°F-7.7°C 78% 2.3 mph SW3.7 kmh SW 5.8 mph9.3 kmh 30.45 in1031.2 mb 0.00 in0.0 mm 0.00 in/hr0.0 mm/hr 0.00 in0.0 mm
02:50 PM 23.8°F-4.6°C 17.9°F-7.8°C 78% 3.5 mph SW5.6 kmh SW 3.5 mph5.6 kmh 30.45 in1031.2 mb 0.00 in0.0 mm 0.00 in/hr0.0 mm/hr 0.00 in0.0 mm
03:00 PM 23.6°F-4.7°C 17.7°F-7.9°C 78% 5.8 mph SW9.3 kmh SW 6.9 mph11.1 kmh 30.44 in1030.8 mb 0.00 in0.0 mm 0.00 in/hr0.0 mm/hr 0.00 in0.0 mm
03:10 PM 23.6°F-4.7°C 17.7°F-7.9°C 78% 2.3 mph W3.7 kmh W 2.3 mph3.7 kmh 30.44 in1030.8 mb 0.00 in0.0 mm 0.00 in/hr0.0 mm/hr 0.00 in0.0 mm
03:20 PM 23.7°F-4.6°C 18.1°F-7.7°C 79% 1.2 mph S1.9 kmh S 3.5 mph5.6 kmh 30.44 in1030.8 mb 0.00 in0.0 mm 0.00 in/hr0.0 mm/hr 0.00 in0.0 mm
03:30 PM 23.6°F-4.7°C 18.1°F-7.7°C 79% 1.2 mph SW1.9 kmh SW 4.6 mph7.4 kmh 30.43 in1030.5 mb 0.00 in0.0 mm 0.00 in/hr0.0 mm/hr 0.00 in0.0 mm
03:40 PM 23.6°F-4.7°C 18.3°F-7.6°C 80% 1.2 mph SW1.9 kmh SW 2.3 mph3.7 kmh 30.42 in1030.1 mb 0.00 in0.0 mm 0.00 in/hr0.0 mm/hr 0.00 in0.0 mm
03:50 PM 23.4°F-4.8°C 18.4°F-7.6°C 81% 2.3 mph S3.7 kmh S 1.2 mph1.9 kmh 30.42 in1030.1 mb 0.00 in0.0 mm 0.00 in/hr0.0 mm/hr 0.00 in0.0 mm
04:00 PM 23.1°F-4.9°C 18.4°F-7.6°C 82% 3.5 mph WSW5.6 kmh WSW 10.4 mph16.7 kmh 30.41 in1029.8 mb 0.00 in0.0 mm 0.00 in/hr0.0 mm/hr 0.00 in0.0 mm
04:10 PM 22.7°F-5.2°C 18.3°F-7.6°C 83% 4.6 mph S7.4 kmh S 9.2 mph14.8 kmh 30.40 in1029.5 mb 0.00 in0.0 mm 0.00 in/hr0.0 mm/hr 0.00 in0.0 mm
04:20 PM 22.6°F-5.2°C 18.5°F-7.5°C 84% 1.2 mph WSW1.9 kmh WSW 4.6 mph7.4 kmh 30.40 in1029.5 mb 0.00 in0.0 mm 0.00 in/hr0.0 mm/hr 0.00 in0.0 mm
04:30 PM 22.5°F-5.3°C 18.9°F-7.3°C 86% 2.3 mph S3.7 kmh S 3.5 mph5.6 kmh 30.39 in1029.1 mb 0.00 in0.0 mm 0.00 in/hr0.0 mm/hr 0.00 in0.0 mm
04:40 PM 22.3°F-5.4°C 19.0°F-7.2°C 87% 2.3 mph SSW3.7 kmh SSW 4.6 mph7.4 kmh 30.38 in1028.8 mb 0.00 in0.0 mm 0.00 in/hr0.0 mm/hr 0.00 in0.0 mm
04:50 PM 22.2°F-5.4°C 18.9°F-7.3°C 87% 1.2 mph WSW1.9 kmh WSW 3.5 mph5.6 kmh 30.38 in1028.8 mb 0.00 in0.0 mm 0.00 in/hr0.0 mm/hr 0.00 in0.0 mm
05:00 PM 22.1°F-5.5°C 19.1°F-7.2°C 88% 2.3 mph SSW3.7 kmh SSW 3.5 mph5.6 kmh 30.37 in1028.4 mb 0.00 in0.0 mm 0.00 in/hr0.0 mm/hr 0.00 in0.0 mm
05:10 PM 22.0°F-5.6°C 19.0°F-7.2°C 88% 2.3 mph WSW3.7 kmh WSW 5.8 mph9.3 kmh 30.37 in1028.4 mb 0.00 in0.0 mm 0.00 in/hr0.0 mm/hr 0.00 in0.0 mm
05:20 PM 21.9°F-5.6°C 19.2°F-7.1°C 89% 1.2 mph WSW1.9 kmh WSW 2.3 mph3.7 kmh 30.36 in1028.1 mb 0.00 in0.0 mm 0.00 in/hr0.0 mm/hr 0.00 in0.0 mm
05:30 PM 21.8°F-5.7°C 19.1°F-7.2°C 89% 2.3 mph SSW3.7 kmh SSW 2.3 mph3.7 kmh 30.35 in1027.8 mb 0.00 in0.0 mm 0.00 in/hr0.0 mm/hr 0.00 in0.0 mm
05:40 PM 21.7°F-5.7°C 19.2°F-7.1°C 90% Calm Calm 1.2 mph1.9 kmh 30.34 in1027.4 mb 0.00 in0.0 mm 0.00 in/hr0.0 mm/hr 0.00 in0.0 mm
05:50 PM 21.6°F-5.8°C 19.4°F-7.0°C 91% Calm Calm 5.8 mph9.3 kmh 30.34 in1027.4 mb 0.00 in0.0 mm 0.00 in/hr0.0 mm/hr 0.00 in0.0 mm
06:00 PM 21.5°F-5.8°C 19.3°F-7.1°C 91% Calm Calm 1.2 mph1.9 kmh 30.32 in1026.8 mb 0.00 in0.0 mm 0.00 in/hr0.0 mm/hr 0.00 in0.0 mm
06:10 PM 21.4°F-5.9°C 19.2°F-7.1°C 91% Calm Calm 1.2 mph1.9 kmh 30.32 in1026.8 mb 0.00 in0.0 mm 0.00 in/hr0.0 mm/hr 0.00 in0.0 mm
06:20 PM 21.4°F-5.9°C 19.4°F-7.0°C 92% Calm Calm -- 30.31 in1026.4 mb 0.00 in0.0 mm 0.00 in/hr0.0 mm/hr 0.00 in0.0 mm
06:30 PM 21.3°F-5.9°C 19.3°F-7.1°C 92% Calm Calm -- 30.31 in1026.4 mb 0.00 in0.0 mm 0.00 in/hr0.0 mm/hr 0.00 in0.0 mm
06:40 PM 21.3°F-5.9°C 19.3°F-7.1°C 92% Calm Calm 1.2 mph1.9 kmh 30.31 in1026.4 mb 0.00 in0.0 mm 0.00 in/hr0.0 mm/hr 0.00 in0.0 mm
06:50 PM 21.3°F-5.9°C 19.3°F-7.1°C 92% Calm Calm -- 30.32 in1026.8 mb 0.00 in0.0 mm 0.00 in/hr0.0 mm/hr 0.00 in0.0 mm
07:00 PM 21.3°F-5.9°C 19.3°F-7.1°C 92% Calm Calm 2.3 mph3.7 kmh 30.31 in1026.4 mb 0.00 in0.0 mm 0.00 in/hr0.0 mm/hr 0.00 in0.0 mm
07:10 PM 21.3°F-5.9°C 19.6°F-6.9°C 93% Calm Calm -- 30.30 in1026.1 mb 0.00 in0.0 mm 0.00 in/hr0.0 mm/hr 0.00 in0.0 mm
07:20 PM 21.3°F-5.9°C 19.6°F-6.9°C 93% Calm Calm 1.2 mph1.9 kmh 30.29 in1025.7 mb 0.00 in0.0 mm 0.00 in/hr0.0 mm/hr 0.00 in0.0 mm
07:30 PM 21.3°F-5.9°C 19.6°F-6.9°C 93% Calm Calm 1.2 mph1.9 kmh 30.28 in1025.4 mb 0.00 in0.0 mm 0.00 in/hr0.0 mm/hr 0.00 in0.0 mm
07:40 PM 21.3°F-5.9°C 19.6°F-6.9°C 93% 1.2 mph SW1.9 kmh SW 3.5 mph5.6 kmh 30.28 in1025.4 mb 0.00 in0.0 mm 0.00 in/hr0.0 mm/hr 0.00 in0.0 mm
07:50 PM 21.3°F-5.9°C 19.6°F-6.9°C 93% 1.2 mph SSW1.9 kmh SSW 2.3 mph3.7 kmh 30.27 in1025.1 mb 0.00 in0.0 mm 0.00 in/hr0.0 mm/hr 0.00 in0.0 mm
08:00 PM 21.4°F-5.9°C 19.7°F-6.8°C 93% Calm Calm 1.2 mph1.9 kmh 30.27 in1025.1 mb 0.00 in0.0 mm 0.00 in/hr0.0 mm/hr 0.00 in0.0 mm
08:10 PM 21.4°F-5.9°C 19.7°F-6.8°C 93% 1.2 mph SW1.9 kmh SW 2.3 mph3.7 kmh 30.26 in1024.7 mb 0.00 in0.0 mm 0.00 in/hr0.0 mm/hr 0.00 in0.0 mm
08:20 PM 21.5°F-5.8°C 19.8°F-6.8°C 93% 1.2 mph SW1.9 kmh SW 2.3 mph3.7 kmh 30.25 in1024.4 mb 0.00 in0.0 mm 0.00 in/hr0.0 mm/hr 0.00 in0.0 mm
08:30 PM 21.6°F-5.8°C 19.9°F-6.7°C 93% Calm Calm 1.2 mph1.9 kmh 30.25 in1024.4 mb 0.00 in0.0 mm 0.00 in/hr0.0 mm/hr 0.00 in0.0 mm
08:40 PM 21.6°F-5.8°C 19.9°F-6.7°C 93% Calm Calm 2.3 mph3.7 kmh 30.24 in1024.0 mb 0.00 in0.0 mm 0.00 in/hr0.0 mm/hr 0.00 in0.0 mm
08:50 PM 21.7°F-5.7°C 20.0°F-6.7°C 93% 2.3 mph W3.7 kmh W 3.5 mph5.6 kmh 30.24 in1024.0 mb 0.00 in0.0 mm 0.00 in/hr0.0 mm/hr 0.00 in0.0 mm
09:00 PM 21.8°F-5.7°C 20.1°F-6.6°C 93% Calm Calm -- 30.22 in1023.4 mb 0.00 in0.0 mm 0.00 in/hr0.0 mm/hr 0.00 in0.0 mm
09:10 PM 21.8°F-5.7°C 20.1°F-6.6°C 93% 1.2 mph WSW1.9 kmh WSW 3.5 mph5.6 kmh 30.22 in1023.4 mb 0.00 in0.0 mm 0.00 in/hr0.0 mm/hr 0.00 in0.0 mm
09:20 PM 21.9°F-5.6°C 20.2°F-6.6°C 93% 1.2 mph W1.9 kmh W 1.2 mph1.9 kmh 30.22 in1023.4 mb 0.00 in0.0 mm 0.00 in/hr0.0 mm/hr 0.00 in0.0 mm
09:30 PM 21.9°F-5.6°C 20.2°F-6.6°C 93% 2.3 mph SSW3.7 kmh SSW 3.5 mph5.6 kmh 30.21 in1023.0 mb 0.00 in0.0 mm 0.00 in/hr0.0 mm/hr 0.00 in0.0 mm
09:40 PM 22.0°F-5.6°C 20.2°F-6.6°C 93% Calm Calm 1.2 mph1.9 kmh 30.20 in1022.7 mb 0.00 in0.0 mm 0.00 in/hr0.0 mm/hr 0.00 in0.0 mm
09:50 PM 21.9°F-5.6°C 20.2°F-6.6°C 93% 2.3 mph SW3.7 kmh SW 3.5 mph5.6 kmh 30.19 in1022.4 mb 0.00 in0.0 mm 0.00 in/hr0.0 mm/hr 0.00 in0.0 mm
10:00 PM 21.9°F-5.6°C 20.2°F-6.6°C 93% Calm Calm 1.2 mph1.9 kmh 30.19 in1022.4 mb 0.00 in0.0 mm 0.00 in/hr0.0 mm/hr 0.00 in0.0 mm
10:10 PM 21.9°F-5.6°C 20.2°F-6.6°C 93% 1.2 mph WSW1.9 kmh WSW 2.3 mph3.7 kmh 30.18 in1022.0 mb 0.00 in0.0 mm 0.00 in/hr0.0 mm/hr 0.00 in0.0 mm
10:20 PM 22.0°F-5.6°C 20.3°F-6.5°C 93% 3.5 mph S5.6 kmh S 4.6 mph7.4 kmh 30.17 in1021.7 mb 0.00 in0.0 mm 0.00 in/hr0.0 mm/hr 0.00 in0.0 mm
10:30 PM 21.9°F-5.6°C 20.2°F-6.6°C 93% Calm Calm 1.2 mph1.9 kmh 30.16 in1021.3 mb 0.00 in0.0 mm 0.00 in/hr0.0 mm/hr 0.00 in0.0 mm
10:40 PM 21.9°F-5.6°C 20.2°F-6.6°C 93% 1.2 mph NW1.9 kmh NW 2.3 mph3.7 kmh 30.16 in1021.3 mb 0.00 in0.0 mm 0.00 in/hr0.0 mm/hr 0.00 in0.0 mm
10:50 PM 21.9°F-5.6°C 20.2°F-6.6°C 93% Calm Calm 2.3 mph3.7 kmh 30.15 in1021.0 mb 0.00 in0.0 mm 0.00 in/hr0.0 mm/hr 0.00 in0.0 mm
11:00 PM 21.9°F-5.6°C 20.2°F-6.6°C 93% 1.2 mph SW1.9 kmh SW 1.2 mph1.9 kmh 30.15 in1021.0 mb 0.00 in0.0 mm 0.00 in/hr0.0 mm/hr 0.00 in0.0 mm
11:10 PM 21.9°F-5.6°C 20.2°F-6.6°C 93% Calm Calm 1.2 mph1.9 kmh 30.14 in1020.7 mb 0.00 in0.0 mm 0.00 in/hr0.0 mm/hr 0.00 in0.0 mm
11:20 PM 21.9°F-5.6°C 20.2°F-6.6°C 93% 1.2 mph SSE1.9 kmh SSE 2.3 mph3.7 kmh 30.14 in1020.7 mb 0.00 in0.0 mm 0.00 in/hr0.0 mm/hr 0.00 in0.0 mm
11:30 PM 21.8°F-5.7°C 20.1°F-6.6°C 93% 1.2 mph W1.9 kmh W 3.5 mph5.6 kmh 30.14 in1020.7 mb 0.00 in0.0 mm 0.00 in/hr0.0 mm/hr 0.00 in0.0 mm
11:40 PM 21.8°F-5.7°C 20.1°F-6.6°C 93% 1.2 mph W1.9 kmh W 2.3 mph3.7 kmh 30.13 in1020.3 mb 0.00 in0.0 mm 0.00 in/hr0.0 mm/hr 0.00 in0.0 mm
11:50 PM 21.7°F-5.7°C 20.0°F-6.7°C 93% 1.2 mph S1.9 kmh S 3.5 mph5.6 kmh 30.12 in1020.0 mb 0.00 in0.0 mm 0.00 in/hr0.0 mm/hr 0.00 in0.0 mm